createdAt,value
2023-02-09T00:00:41.818Z,24.45
2023-02-09T00:01:43.773Z,22.95
2023-02-09T00:02:46.168Z,23.74
2023-02-09T00:03:48.760Z,26.24
2023-02-09T00:04:51.284Z,26.66
2023-02-09T00:05:53.271Z,25.09
2023-02-09T00:06:56.293Z,25.54
2023-02-09T00:07:58.861Z,24.60
2023-02-09T00:09:00.807Z,24.48
2023-02-09T00:10:04.809Z,27.39
2023-02-09T00:11:12.297Z,25.78
2023-02-09T00:12:14.329Z,25.12
2023-02-09T00:13:16.795Z,24.19
2023-02-09T00:14:22.098Z,23.61
2023-02-09T00:15:24.495Z,22.59
2023-02-09T00:16:26.622Z,21.12
2023-02-09T00:17:29.000Z,24.99
2023-02-09T00:18:32.629Z,25.37
2023-02-09T00:19:34.739Z,25.32
2023-02-09T00:20:36.753Z,25.13
2023-02-09T00:21:39.843Z,23.60
2023-02-09T00:22:41.865Z,25.23
2023-02-09T00:23:43.922Z,25.91
2023-02-09T00:24:45.815Z,26.58
2023-02-09T00:25:47.687Z,26.09
2023-02-09T00:26:49.798Z,27.03
2023-02-09T00:27:51.808Z,29.24
2023-02-09T00:28:53.992Z,26.62
2023-02-09T00:29:55.860Z,27.90
2023-02-09T00:30:59.088Z,27.96
2023-02-09T00:32:01.421Z,29.02
2023-02-09T00:33:03.615Z,30.05
2023-02-09T00:34:07.130Z,29.09
2023-02-09T00:35:09.028Z,28.09
2023-02-09T00:36:13.453Z,25.29
2023-02-09T00:37:15.824Z,26.57
2023-02-09T00:38:17.723Z,28.44
2023-02-09T00:39:19.722Z,26.56
2023-02-09T00:40:21.804Z,25.00
2023-02-09T00:41:23.711Z,25.93
2023-02-09T00:42:25.618Z,27.24
2023-02-09T00:43:27.606Z,24.95
2023-02-09T00:44:29.586Z,25.95
2023-02-09T00:45:32.028Z,25.48
2023-02-09T00:46:34.215Z,25.40
2023-02-09T00:47:36.208Z,26.67
2023-02-09T00:48:38.193Z,25.86
2023-02-09T00:49:40.122Z,26.23
2023-02-09T00:50:42.285Z,28.04
2023-02-09T00:51:44.465Z,26.42
2023-02-09T00:52:46.453Z,26.75
2023-02-09T00:53:48.351Z,25.88
2023-02-09T00:54:50.360Z,25.06
2023-02-09T00:55:52.883Z,25.53
2023-02-09T00:56:55.067Z,24.56
2023-02-09T00:57:57.150Z,23.49
2023-02-09T00:58:59.404Z,23.94
2023-02-09T01:00:03.028Z,23.85
2023-02-09T01:01:05.295Z,23.81
2023-02-09T01:02:07.523Z,22.69
2023-02-09T01:03:10.316Z,24.09
2023-02-09T01:04:12.390Z,24.17
2023-02-09T01:05:14.792Z,25.77
2023-02-09T01:06:17.029Z,26.13
2023-02-09T01:07:19.315Z,25.43
2023-02-09T01:08:21.299Z,27.17
2023-02-09T01:09:23.666Z,27.65
2023-02-09T01:10:25.739Z,29.66
2023-02-09T01:11:27.923Z,31.06
2023-02-09T01:12:31.133Z,33.09
2023-02-09T01:13:33.099Z,32.77
2023-02-09T01:14:37.133Z,33.74
2023-02-09T01:15:39.972Z,34.83
2023-02-09T01:16:42.347Z,33.23
2023-02-09T01:17:44.612Z,32.84
2023-02-09T01:18:46.480Z,32.59
2023-02-09T01:19:53.878Z,28.63
2023-02-09T01:20:55.913Z,30.73
2023-02-09T01:21:58.344Z,28.45
2023-02-09T01:23:01.118Z,27.80
2023-02-09T01:24:03.716Z,26.54
2023-02-09T01:25:07.846Z,27.68
2023-02-09T01:26:11.977Z,25.48
2023-02-09T01:27:14.454Z,24.58
2023-02-09T01:28:16.434Z,25.55
2023-02-09T01:29:20.413Z,24.55
2023-02-09T01:30:22.515Z,24.69
2023-02-09T01:31:30.897Z,26.10
2023-02-09T01:32:35.649Z,25.36
2023-02-09T01:33:37.570Z,25.73
2023-02-09T01:34:39.720Z,28.19
2023-02-09T01:35:41.825Z,28.13
2023-02-09T01:36:45.139Z,26.69
2023-02-09T01:37:47.048Z,27.64
2023-02-09T01:38:49.538Z,26.78
2023-02-09T01:39:51.556Z,30.20
2023-02-09T01:40:53.639Z,28.05
2023-02-09T01:41:55.546Z,28.11
2023-02-09T01:42:57.443Z,26.91
2023-02-09T01:44:05.909Z,27.05
2023-02-09T01:45:14.651Z,25.92
2023-02-09T01:46:17.438Z,25.83
2023-02-09T01:47:19.625Z,25.03
2023-02-09T01:49:35.042Z,24.36
2023-02-09T01:50:40.413Z,25.61
2023-02-09T01:51:49.067Z,24.18
2023-02-09T01:52:51.305Z,27.19
2023-02-09T01:53:54.016Z,29.74
2023-02-09T01:55:02.653Z,31.01
2023-02-09T01:56:08.587Z,31.79
2023-02-09T01:57:14.348Z,34.11
2023-02-09T01:58:20.105Z,35.02
2023-02-09T01:59:23.534Z,35.95
2023-02-09T02:00:26.567Z,35.30
2023-02-09T02:01:28.812Z,37.94
2023-02-09T02:02:31.865Z,9.38
2023-02-09T02:03:34.306Z,38.26
2023-02-09T02:04:41.426Z,34.24
2023-02-09T02:05:46.788Z,32.47
2023-02-09T02:06:50.402Z,33.87
2023-02-09T02:07:59.378Z,34.59
2023-02-09T02:09:07.928Z,33.41
2023-02-09T02:10:11.278Z,34.96
2023-02-09T02:11:14.254Z,33.98
2023-02-09T02:12:17.572Z,33.88
2023-02-09T02:13:20.471Z,33.98
2023-02-09T02:14:31.607Z,33.49
2023-02-09T02:15:45.997Z,30.72
2023-02-09T02:16:51.898Z,30.23
2023-02-09T02:18:17.751Z,31.33
2023-02-09T02:19:35.228Z,31.62
2023-02-09T02:20:44.366Z,28.14
2023-02-09T02:23:06.669Z,30.31
2023-02-09T02:24:18.342Z,30.68
2023-02-09T02:25:41.100Z,28.54
2023-02-09T02:27:01.528Z,29.03
2023-02-09T02:28:27.157Z,28.08
2023-02-09T02:29:58.772Z,27.89
2023-02-09T02:31:30.794Z,26.94
2023-02-09T02:32:48.787Z,28.21
2023-02-09T02:36:17.900Z,26.46
2023-02-09T02:37:38.645Z,26.95
2023-02-09T02:38:47.917Z,26.79
2023-02-09T02:40:02.724Z,28.06
2023-02-09T02:41:18.184Z,27.83
2023-02-09T02:42:29.725Z,28.09
2023-02-09T02:44:01.822Z,26.96
2023-02-09T02:45:10.589Z,26.63
2023-02-09T02:46:35.729Z,28.15
2023-02-09T02:47:41.073Z,26.16
2023-02-09T02:50:12.160Z,26.26
2023-02-09T02:51:39.052Z,25.70
2023-02-09T02:52:44.755Z,25.83
2023-02-09T02:53:50.749Z,27.78
2023-02-09T02:54:56.435Z,27.27
2023-02-09T02:57:18.627Z,27.26
2023-02-09T02:58:23.899Z,27.08
2023-02-09T02:59:35.892Z,27.28
2023-02-09T03:00:44.756Z,30.22
2023-02-09T03:01:59.417Z,28.52
2023-02-09T03:03:08.127Z,31.38
2023-02-09T03:04:12.780Z,32.89
2023-02-09T03:05:18.325Z,34.78
2023-02-09T03:06:20.457Z,34.13
2023-02-09T03:07:22.502Z,33.80
2023-02-09T03:08:24.386Z,35.83
2023-02-09T03:09:26.417Z,35.11
2023-02-09T03:10:31.969Z,36.95
2023-02-09T03:11:37.416Z,37.54
2023-02-09T03:12:43.204Z,36.43
2023-02-09T03:14:10.900Z,37.78
2023-02-09T03:15:19.705Z,39.65
2023-02-09T03:16:43.667Z,40.69
2023-02-09T03:19:45.548Z,40.31
2023-02-09T03:21:00.008Z,36.58
2023-02-09T03:22:27.129Z,35.41
2023-02-09T03:23:44.982Z,32.36
2023-02-09T03:25:09.041Z,30.73
2023-02-09T03:26:18.251Z,31.00
2023-02-09T03:27:26.670Z,30.97
2023-02-09T03:28:32.439Z,31.21
2023-02-09T03:29:37.388Z,30.30
2023-02-09T03:30:41.488Z,31.07
2023-02-09T03:31:45.327Z,30.56
2023-02-09T03:32:47.505Z,30.50
2023-02-09T03:33:50.094Z,29.63
2023-02-09T03:34:53.604Z,30.75
2023-02-09T03:35:58.768Z,27.80
2023-02-09T03:37:01.843Z,27.18
2023-02-09T03:38:03.845Z,27.57
2023-02-09T03:39:05.918Z,26.76
2023-02-09T03:40:09.528Z,27.62
2023-02-09T03:41:11.705Z,27.44
2023-02-09T03:42:13.984Z,26.21
2023-02-09T03:43:16.219Z,28.27
2023-02-09T03:44:18.243Z,26.47
2023-02-09T03:45:20.108Z,26.83
2023-02-09T03:46:22.096Z,27.27
2023-02-09T03:47:24.061Z,27.88
2023-02-09T03:48:26.157Z,28.11
2023-02-09T03:49:34.403Z,27.98
2023-02-09T03:50:37.141Z,28.79
2023-02-09T03:51:39.055Z,28.57
2023-02-09T03:52:41.060Z,29.14
2023-02-09T03:53:43.035Z,28.16
2023-02-09T03:54:45.069Z,27.67
2023-02-09T03:55:47.319Z,28.84
2023-02-09T03:56:49.526Z,28.61
2023-02-09T03:57:52.231Z,28.55
2023-02-09T03:58:54.124Z,28.16
2023-02-09T03:59:56.160Z,29.95
2023-02-09T04:01:10.032Z,28.25
2023-02-09T04:02:12.504Z,32.19
2023-02-09T04:03:14.524Z,30.60
2023-02-09T04:04:16.678Z,30.47
2023-02-09T04:05:18.585Z,33.83
2023-02-09T04:06:20.894Z,30.69
2023-02-09T04:07:22.762Z,30.71
2023-02-09T04:08:25.801Z,31.81
2023-02-09T04:09:28.096Z,33.03
2023-02-09T04:10:30.167Z,31.19
2023-02-09T04:11:32.147Z,30.25
2023-02-09T04:12:34.538Z,30.91
2023-02-09T04:13:36.467Z,30.74
2023-02-09T04:14:39.433Z,30.83
2023-02-09T04:15:41.415Z,31.05
2023-02-09T04:16:43.992Z,30.01
2023-02-09T04:17:46.394Z,31.48
2023-02-09T04:18:48.280Z,32.55
2023-02-09T04:19:50.346Z,35.80
2023-02-09T04:20:52.637Z,48.38
2023-02-09T04:21:55.708Z,44.47
2023-02-09T04:22:57.614Z,54.63
2023-02-09T04:23:59.507Z,58.89
2023-02-09T04:25:02.271Z,43.06
2023-02-09T04:26:05.623Z,36.90
2023-02-09T04:27:07.639Z,33.34
2023-02-09T04:28:09.963Z,31.09
2023-02-09T04:29:12.027Z,28.87
2023-02-09T04:30:14.684Z,29.71
2023-02-09T04:31:17.098Z,29.41
2023-02-09T04:32:19.937Z,31.41
2023-02-09T04:33:23.811Z,31.40
2023-02-09T04:34:26.068Z,34.12
2023-02-09T04:35:28.088Z,33.51
2023-02-09T04:36:30.383Z,32.39
2023-02-09T04:37:32.280Z,32.71
2023-02-09T04:38:34.938Z,32.40
2023-02-09T04:39:38.102Z,33.01
2023-02-09T04:40:40.129Z,34.16
2023-02-09T04:41:42.114Z,32.49
2023-02-09T04:42:45.633Z,30.90
2023-02-09T04:43:49.741Z,30.90
2023-02-09T04:44:51.693Z,31.24
2023-02-09T04:45:54.055Z,30.03
2023-02-09T04:46:56.167Z,29.43
2023-02-09T04:47:59.995Z,30.11
2023-02-09T04:49:04.250Z,30.65
2023-02-09T04:50:07.955Z,31.38
2023-02-09T04:51:11.432Z,29.49
2023-02-09T04:52:13.553Z,30.78
2023-02-09T04:53:16.022Z,30.13
2023-02-09T04:54:19.053Z,28.70
2023-02-09T04:55:21.044Z,32.05
2023-02-09T04:56:23.214Z,34.45
2023-02-09T04:57:25.392Z,33.79
2023-02-09T04:58:28.141Z,33.28
2023-02-09T04:59:30.162Z,30.69
2023-02-09T05:00:34.147Z,30.86
2023-02-09T05:01:38.108Z,29.79
2023-02-09T05:02:40.087Z,30.76
2023-02-09T05:03:42.005Z,29.32
2023-02-09T05:04:43.952Z,31.50
2023-02-09T05:05:46.058Z,35.57
2023-02-09T05:06:48.152Z,41.29
2023-02-09T05:07:50.401Z,41.97
2023-02-09T05:08:52.443Z,38.74
2023-02-09T05:09:54.364Z,54.67
2023-02-09T05:10:56.894Z,50.15
2023-02-09T05:11:58.790Z,37.39
2023-02-09T05:13:00.860Z,33.34
2023-02-09T05:14:02.936Z,31.93
2023-02-09T05:15:05.605Z,34.29
2023-02-09T05:16:11.401Z,34.05
2023-02-09T05:17:13.554Z,35.21
2023-02-09T05:18:16.166Z,36.57
2023-02-09T05:19:18.455Z,40.03
2023-02-09T05:20:20.989Z,35.76
2023-02-09T05:21:23.457Z,36.77
2023-02-09T05:22:28.653Z,33.40
2023-02-09T05:23:31.666Z,34.99
2023-02-09T05:24:33.728Z,37.46
2023-02-09T05:25:36.301Z,36.03
2023-02-09T05:26:38.382Z,38.02
2023-02-09T05:27:40.770Z,39.05
2023-02-09T05:28:42.830Z,40.29
2023-02-09T05:29:45.751Z,41.26
2023-02-09T05:30:49.125Z,39.77
2023-02-09T05:31:51.372Z,38.08
2023-02-09T05:32:54.248Z,39.83
2023-02-09T05:33:56.123Z,37.81
2023-02-09T05:34:59.280Z,38.59
2023-02-09T05:36:01.401Z,37.71
2023-02-09T05:37:03.388Z,38.91
2023-02-09T05:38:05.343Z,39.35
2023-02-09T05:39:07.214Z,37.47
2023-02-09T05:40:10.839Z,39.40
2023-02-09T05:41:14.049Z,41.81
2023-02-09T05:42:16.632Z,42.08
2023-02-09T05:43:18.634Z,40.29
2023-02-09T05:44:21.087Z,41.81
2023-02-09T05:45:23.086Z,41.97
2023-02-09T05:46:25.355Z,38.01
2023-02-09T05:47:27.637Z,38.65
2023-02-09T05:48:29.806Z,38.59
2023-02-09T05:49:31.809Z,37.07
2023-02-09T05:50:34.375Z,35.42
2023-02-09T05:51:36.360Z,36.38
2023-02-09T05:52:38.276Z,36.50
2023-02-09T05:53:40.318Z,36.27
2023-02-09T05:54:43.076Z,34.02
2023-02-09T05:55:46.805Z,35.48
2023-02-09T05:56:49.107Z,36.64
2023-02-09T05:57:51.062Z,36.49
2023-02-09T05:58:52.930Z,36.70
2023-02-09T05:59:55.556Z,36.35
2023-02-09T06:00:57.667Z,36.35
2023-02-09T06:02:00.820Z,36.79
2023-02-09T06:03:03.886Z,40.39
2023-02-09T06:04:06.911Z,39.70
2023-02-09T06:05:09.001Z,41.07
2023-02-09T06:06:11.146Z,41.70
2023-02-09T06:07:13.006Z,42.90
2023-02-09T06:08:14.891Z,45.23
2023-02-09T06:09:16.956Z,44.17
2023-02-09T06:10:19.441Z,43.14
2023-02-09T06:11:21.356Z,45.97
2023-02-09T06:12:24.428Z,45.66
2023-02-09T06:13:26.304Z,44.56
2023-02-09T06:14:29.144Z,45.78
2023-02-09T06:15:31.175Z,46.33
2023-02-09T06:16:33.234Z,48.45
2023-02-09T06:17:36.230Z,51.80
2023-02-09T06:18:38.241Z,52.62
2023-02-09T06:19:40.180Z,53.07
2023-02-09T06:20:42.273Z,58.73
2023-02-09T06:21:44.978Z,54.55
2023-02-09T06:22:47.110Z,55.95
2023-02-09T06:23:49.199Z,52.15
2023-02-09T06:24:51.461Z,47.21
2023-02-09T06:25:53.430Z,47.46
2023-02-09T06:26:55.643Z,48.50
2023-02-09T06:27:57.581Z,46.84
2023-02-09T06:28:59.613Z,45.41
2023-02-09T06:30:01.859Z,48.07
2023-02-09T06:31:04.651Z,57.70
2023-02-09T06:32:07.090Z,58.04
2023-02-09T06:33:09.127Z,57.10
2023-02-09T06:34:11.006Z,62.73
2023-02-09T06:35:12.897Z,67.72
2023-02-09T06:36:15.069Z,67.23
2023-02-09T06:37:17.940Z,68.45
2023-02-09T06:38:21.016Z,63.63
2023-02-09T06:39:22.893Z,61.13
2023-02-09T06:40:27.275Z,61.64
2023-02-09T06:41:29.228Z,56.97
2023-02-09T06:42:31.218Z,52.17
2023-02-09T06:43:34.914Z,53.21
2023-02-09T06:44:36.993Z,56.85
2023-02-09T06:45:39.503Z,54.38
2023-02-09T06:46:41.634Z,55.64
2023-02-09T06:47:45.108Z,52.89
2023-02-09T06:48:47.450Z,56.68
2023-02-09T06:49:50.014Z,56.53
2023-02-09T06:50:52.404Z,58.97
2023-02-09T06:51:54.832Z,58.00
2023-02-09T06:52:58.719Z,56.76
2023-02-09T06:54:00.835Z,56.46
2023-02-09T06:55:03.445Z,54.40
2023-02-09T06:56:07.102Z,59.41
2023-02-09T06:57:09.014Z,57.76
2023-02-09T06:58:11.485Z,55.37
2023-02-09T06:59:15.019Z,53.34
2023-02-09T07:00:18.620Z,52.29
2023-02-09T07:01:21.819Z,51.99
2023-02-09T07:02:23.818Z,51.80
2023-02-09T07:03:26.557Z,52.51
2023-02-09T07:04:28.482Z,53.32
2023-02-09T07:05:30.810Z,49.40
2023-02-09T07:06:33.010Z,50.35
2023-02-09T07:07:35.252Z,51.54
2023-02-09T07:08:39.206Z,48.55
2023-02-09T07:09:41.412Z,48.00
2023-02-09T07:10:43.880Z,48.37
2023-02-09T07:11:46.042Z,49.53
2023-02-09T07:12:48.216Z,47.38
2023-02-09T07:13:51.157Z,47.16
2023-02-09T07:14:53.083Z,46.11
2023-02-09T07:15:56.469Z,43.76
2023-02-09T07:16:59.091Z,40.44
2023-02-09T07:18:01.111Z,41.19
2023-02-09T07:19:04.311Z,38.91
2023-02-09T07:20:08.617Z,41.37
2023-02-09T07:21:13.348Z,41.40
2023-02-09T07:22:15.831Z,39.82
2023-02-09T07:23:18.636Z,40.83
2023-02-09T07:24:21.347Z,40.84
2023-02-09T07:25:23.240Z,41.83
2023-02-09T07:26:25.472Z,40.69
2023-02-09T07:27:27.458Z,38.44
2023-02-09T07:28:29.569Z,40.51
2023-02-09T07:29:32.728Z,40.31
2023-02-09T07:30:34.888Z,38.12
2023-02-09T07:31:37.088Z,38.17
2023-02-09T07:32:40.689Z,35.71
2023-02-09T07:33:43.222Z,36.48
2023-02-09T07:34:45.365Z,36.45
2023-02-09T07:35:48.293Z,34.91
2023-02-09T07:36:50.645Z,34.60
2023-02-09T07:37:52.657Z,31.93
2023-02-09T07:38:55.660Z,33.21
2023-02-09T07:39:58.722Z,33.26
2023-02-09T07:41:03.676Z,32.21
2023-02-09T07:42:06.054Z,36.75
2023-02-09T07:43:08.057Z,38.39
2023-02-09T07:44:09.965Z,36.72
2023-02-09T07:45:11.970Z,35.65
2023-02-09T07:46:18.005Z,31.63
2023-02-09T07:47:20.174Z,31.71
2023-02-09T07:48:22.251Z,30.47
2023-02-09T07:49:24.226Z,32.62
2023-02-09T07:50:26.679Z,32.52
2023-02-09T07:51:29.673Z,32.59
2023-02-09T07:52:31.750Z,34.56
2023-02-09T07:53:33.758Z,33.67
2023-02-09T07:54:35.674Z,32.77
2023-02-09T07:55:39.843Z,32.79
2023-02-09T07:56:41.902Z,31.79
2023-02-09T07:57:43.778Z,32.64
2023-02-09T07:58:45.670Z,32.63
2023-02-09T07:59:47.806Z,30.52
2023-02-09T08:00:50.854Z,34.05
2023-02-09T08:01:52.934Z,33.12
2023-02-09T08:02:54.992Z,35.10
2023-02-09T08:03:57.738Z,33.55
2023-02-09T08:05:00.460Z,32.86
2023-02-09T08:06:25.984Z,32.74
2023-02-09T08:07:30.508Z,31.87
2023-02-09T08:08:32.442Z,32.22
2023-02-09T08:09:35.567Z,34.40
2023-02-09T08:10:40.959Z,38.35
2023-02-09T08:11:49.245Z,38.25
2023-02-09T08:12:53.749Z,36.27
2023-02-09T08:14:01.111Z,34.80
2023-02-09T08:15:05.061Z,40.20
2023-02-09T08:16:11.544Z,37.44
2023-02-09T08:17:17.264Z,33.74
2023-02-09T08:18:22.965Z,32.43
2023-02-09T08:19:25.193Z,33.84
2023-02-09T08:20:31.038Z,31.73
2023-02-09T08:21:36.748Z,31.62
2023-02-09T08:22:41.928Z,30.40
2023-02-09T08:23:47.339Z,30.28
2023-02-09T08:24:49.889Z,29.88
2023-02-09T08:25:53.055Z,30.69
2023-02-09T08:26:55.248Z,30.62
2023-02-09T08:27:58.801Z,31.62
2023-02-09T08:29:01.814Z,30.37
2023-02-09T08:30:05.157Z,30.57
2023-02-09T08:31:07.165Z,30.65
2023-02-09T08:32:09.222Z,30.15
2023-02-09T08:33:11.394Z,27.89
2023-02-09T08:34:13.501Z,29.17
2023-02-09T08:35:16.052Z,28.21
2023-02-09T08:36:19.903Z,27.65
2023-02-09T08:37:22.211Z,27.02
2023-02-09T08:38:25.346Z,27.41
2023-02-09T08:39:27.349Z,27.52
2023-02-09T08:40:31.896Z,26.11
2023-02-09T08:41:34.255Z,26.10
2023-02-09T08:42:36.222Z,25.30
2023-02-09T08:43:39.066Z,28.35
2023-02-09T08:44:40.947Z,24.96
2023-02-09T08:45:43.172Z,25.45
2023-02-09T08:46:45.667Z,24.89
2023-02-09T08:47:47.667Z,24.22
2023-02-09T08:48:51.560Z,24.30
2023-02-09T08:49:53.617Z,24.05
2023-02-09T08:50:55.600Z,23.66
2023-02-09T08:51:57.514Z,25.26
2023-02-09T08:52:59.678Z,25.43
2023-02-09T08:54:02.880Z,24.72
2023-02-09T08:55:06.292Z,26.89
2023-02-09T08:56:10.228Z,28.12
2023-02-09T08:57:12.417Z,29.27
2023-02-09T08:58:15.393Z,29.93
2023-02-09T08:59:20.006Z,29.69
2023-02-09T09:00:21.671Z,25.34
2023-02-09T09:01:23.616Z,26.85
2023-02-09T09:02:25.770Z,24.95
2023-02-09T09:03:30.029Z,25.65
2023-02-09T09:04:32.374Z,24.81
2023-02-09T09:05:35.085Z,25.09
2023-02-09T09:06:38.125Z,26.62
2023-02-09T09:07:40.362Z,26.92
2023-02-09T09:08:42.268Z,27.56
2023-02-09T09:09:44.941Z,28.83
2023-02-09T09:10:47.075Z,26.88
2023-02-09T09:11:48.969Z,27.57
2023-02-09T09:12:51.767Z,27.51
2023-02-09T09:13:53.672Z,27.66
2023-02-09T09:14:55.730Z,27.35
2023-02-09T09:15:58.625Z,26.81
2023-02-09T09:17:00.801Z,26.16
2023-02-09T09:18:03.244Z,26.79
2023-02-09T09:19:05.357Z,27.09
2023-02-09T09:20:10.112Z,26.15
2023-02-09T09:21:13.863Z,25.31
2023-02-09T09:22:15.879Z,24.59
2023-02-09T09:23:18.688Z,26.35
2023-02-09T09:24:21.792Z,25.79
2023-02-09T09:25:23.784Z,24.48
2023-02-09T09:26:25.867Z,23.72
2023-02-09T09:27:27.855Z,24.56
2023-02-09T09:28:30.568Z,23.05
2023-02-09T09:29:33.915Z,22.05
2023-02-09T09:30:37.708Z,22.35
2023-02-09T09:31:39.786Z,21.87
2023-02-09T09:32:41.944Z,21.14
2023-02-09T09:33:45.694Z,22.43
2023-02-09T09:34:47.684Z,22.56
2023-02-09T09:35:49.681Z,21.60
2023-02-09T09:36:51.996Z,22.27
2023-02-09T09:37:55.062Z,21.05
2023-02-09T09:38:58.104Z,20.20
2023-02-09T09:40:00.150Z,19.71
2023-02-09T09:41:04.282Z,19.62
2023-02-09T09:42:09.089Z,21.26
2023-02-09T09:43:38.177Z,21.88
2023-02-09T09:44:47.147Z,22.12
2023-02-09T09:45:49.663Z,22.28
2023-02-09T09:46:53.675Z,19.56
2023-02-09T09:47:56.377Z,20.55
2023-02-09T09:48:59.378Z,19.37
2023-02-09T09:50:03.401Z,19.04
2023-02-09T09:51:21.209Z,18.30
2023-02-09T09:52:29.979Z,19.41
2023-02-09T09:53:35.490Z,18.72
2023-02-09T09:54:37.692Z,18.76
2023-02-09T09:55:40.391Z,19.47
2023-02-09T09:56:42.896Z,18.90
2023-02-09T09:57:45.690Z,20.60
2023-02-09T09:58:49.076Z,19.62
2023-02-09T09:59:52.599Z,18.35
2023-02-09T10:00:55.938Z,20.64
2023-02-09T10:02:01.664Z,20.10
2023-02-09T10:05:27.737Z,17.83
2023-02-09T10:06:31.282Z,16.92
2023-02-09T10:07:34.552Z,17.86
2023-02-09T10:08:45.894Z,18.16
2023-02-09T10:09:54.341Z,18.84
2023-02-09T10:11:00.383Z,17.58
2023-02-09T10:12:06.122Z,19.57
2023-02-09T10:13:17.972Z,18.79
2023-02-09T10:14:21.410Z,20.60
2023-02-09T10:15:30.705Z,18.48
2023-02-09T10:16:35.678Z,17.77
2023-02-09T10:17:38.006Z,18.08
2023-02-09T10:18:39.916Z,16.82
2023-02-09T10:19:41.785Z,16.65
2023-02-09T10:20:50.508Z,16.98
2023-02-09T10:21:54.054Z,16.81
2023-02-09T10:22:58.873Z,16.06
2023-02-09T10:26:27.345Z,16.61
2023-02-09T10:27:30.371Z,16.98
2023-02-09T10:28:44.049Z,17.43
2023-02-09T10:29:46.516Z,17.33
2023-02-09T10:30:52.005Z,17.00
2023-02-09T10:32:12.583Z,17.33
2023-02-09T10:33:15.236Z,17.21
2023-02-09T10:34:20.611Z,16.85
2023-02-09T10:35:26.428Z,15.69
2023-02-09T10:36:32.144Z,17.64
2023-02-09T10:37:39.491Z,16.52
2023-02-09T10:38:43.879Z,15.34
2023-02-09T10:39:50.081Z,15.34
2023-02-09T10:40:52.400Z,15.02
2023-02-09T10:41:56.307Z,14.61
2023-02-09T10:43:01.843Z,13.88
2023-02-09T10:44:20.224Z,15.34
2023-02-09T10:45:28.853Z,14.53
2023-02-09T10:46:32.739Z,15.19
2023-02-09T10:47:36.097Z,15.19
2023-02-09T10:48:46.710Z,14.47
2023-02-09T10:51:17.589Z,14.17
2023-02-09T10:52:24.704Z,14.44
2023-02-09T10:53:39.044Z,15.86
2023-02-09T10:54:53.270Z,15.32
2023-02-09T10:56:04.753Z,14.21
2023-02-09T10:57:25.656Z,14.27
2023-02-09T10:59:33.861Z,14.74
2023-02-09T11:00:48.305Z,14.72
2023-02-09T11:02:01.243Z,14.19
2023-02-09T11:03:06.923Z,13.42
2023-02-09T11:04:23.667Z,12.65
2023-02-09T11:05:29.195Z,14.58
2023-02-09T11:07:55.923Z,11.12
2023-02-09T11:09:05.289Z,11.18
2023-02-09T11:10:12.531Z,11.77
2023-02-09T11:11:36.809Z,11.09
2023-02-09T11:13:48.540Z,12.22
2023-02-09T11:14:50.552Z,11.26
2023-02-09T11:16:12.994Z,10.95
2023-02-09T11:17:36.010Z,11.04
2023-02-09T11:18:40.981Z,10.97
2023-02-09T11:19:46.657Z,11.69
2023-02-09T11:20:53.068Z,11.56
2023-02-09T11:22:11.070Z,12.11
2023-02-09T11:23:23.648Z,11.53
2023-02-09T11:24:41.515Z,12.84
2023-02-09T11:25:55.940Z,14.12
2023-02-09T11:27:23.687Z,12.88
2023-02-09T11:29:04.835Z,13.06
2023-02-09T11:30:11.004Z,14.99
2023-02-09T11:31:40.482Z,14.81
2023-02-09T11:33:10.770Z,13.16
2023-02-09T11:34:34.846Z,12.28
2023-02-09T11:35:43.683Z,13.08
2023-02-09T11:36:52.456Z,12.55
2023-02-09T11:38:04.128Z,12.26
2023-02-09T11:39:12.874Z,13.22
2023-02-09T11:40:25.700Z,12.99
2023-02-09T11:41:34.418Z,13.13
2023-02-09T11:42:40.129Z,13.37
2023-02-09T11:43:45.768Z,12.75
2023-02-09T11:45:00.236Z,13.35
2023-02-09T11:46:06.080Z,13.64
2023-02-09T11:47:12.098Z,14.23
2023-02-09T11:48:17.758Z,14.73
2023-02-09T11:49:22.970Z,14.15
2023-02-09T11:50:44.199Z,13.17
2023-02-09T11:51:48.628Z,14.20
2023-02-09T11:52:57.492Z,14.21
2023-02-09T11:54:15.188Z,13.47
2023-02-09T11:55:30.063Z,15.33
2023-02-09T11:56:35.981Z,15.04
2023-02-09T11:57:44.745Z,14.21
2023-02-09T11:58:55.995Z,13.42
2023-02-09T12:00:00.502Z,15.80
2023-02-09T12:01:21.911Z,15.16
2023-02-09T12:03:30.920Z,14.22
2023-02-09T12:04:45.661Z,14.07
2023-02-09T12:05:48.485Z,14.72
2023-02-09T12:06:57.395Z,14.57
2023-02-09T12:08:20.174Z,14.62
2023-02-09T12:09:31.784Z,15.06
2023-02-09T12:10:49.841Z,14.64
2023-02-09T12:12:14.829Z,15.49
2023-02-09T12:13:41.901Z,15.49
2023-02-09T12:15:05.649Z,14.42
2023-02-09T12:16:11.834Z,14.41
2023-02-09T12:17:20.898Z,14.44
2023-02-09T12:18:27.841Z,15.69
2023-02-09T12:19:40.604Z,15.23
2023-02-09T12:20:52.392Z,15.46
2023-02-09T12:21:54.691Z,14.42
2023-02-09T12:23:06.514Z,14.64
2023-02-09T12:24:31.880Z,15.03
2023-02-09T12:25:54.678Z,14.71
2023-02-09T12:26:57.295Z,13.47
2023-02-09T12:28:09.231Z,13.28
2023-02-09T12:29:36.011Z,13.09
2023-02-09T12:30:48.305Z,13.22
2023-02-09T12:32:06.693Z,14.39
2023-02-09T12:33:24.577Z,13.26
2023-02-09T12:34:42.194Z,14.99
2023-02-09T12:35:59.803Z,14.75
2023-02-09T12:37:14.867Z,15.01
2023-02-09T12:38:18.741Z,13.95
2023-02-09T12:39:24.598Z,14.42
2023-02-09T12:40:36.838Z,14.97
2023-02-09T12:41:45.295Z,13.34
2023-02-09T12:42:53.616Z,14.52
2023-02-09T12:44:10.888Z,14.69
2023-02-09T12:48:02.456Z,14.49
2023-02-09T12:49:17.206Z,14.66
2023-02-09T12:50:23.840Z,13.97
2023-02-09T12:51:41.411Z,13.49
2023-02-09T12:53:04.128Z,14.69
2023-02-09T12:54:44.627Z,15.76
2023-02-09T12:56:10.076Z,16.74
2023-02-09T12:57:18.903Z,18.63
2023-02-09T12:58:45.132Z,18.03
2023-02-09T12:59:55.232Z,19.34
2023-02-09T13:00:59.545Z,17.74
2023-02-09T13:02:11.095Z,17.77
2023-02-09T13:03:16.666Z,17.19
2023-02-09T13:04:19.826Z,15.31
2023-02-09T13:05:29.382Z,15.29
2023-02-09T13:06:47.561Z,16.21
2023-02-09T13:08:10.213Z,16.32
2023-02-09T13:09:19.375Z,15.99
2023-02-09T13:10:42.473Z,15.97
2023-02-09T13:11:48.285Z,16.46
2023-02-09T13:12:54.779Z,16.48
2023-02-09T13:14:03.364Z,17.43
2023-02-09T13:16:25.840Z,15.84
2023-02-09T13:17:37.427Z,16.10
2023-02-09T13:18:55.940Z,16.26
2023-02-09T13:20:16.918Z,15.74
2023-02-09T13:21:28.726Z,15.23
2023-02-09T13:22:53.078Z,16.33
2023-02-09T13:24:10.862Z,16.08
2023-02-09T13:25:17.287Z,16.58
2023-02-09T13:26:25.704Z,16.47
2023-02-09T13:27:29.210Z,17.37
2023-02-09T13:28:31.253Z,15.88
2023-02-09T13:29:33.394Z,17.15
2023-02-09T13:30:35.755Z,16.67
2023-02-09T13:31:41.015Z,16.99
2023-02-09T13:32:46.857Z,16.17
2023-02-09T13:33:52.656Z,15.37
2023-02-09T13:35:08.246Z,16.37
2023-02-09T13:36:35.495Z,15.73
2023-02-09T13:37:44.773Z,15.96
2023-02-09T13:38:46.952Z,17.17
2023-02-09T13:39:58.106Z,17.15
2023-02-09T13:41:00.594Z,17.04
2023-02-09T13:44:23.979Z,15.58
2023-02-09T13:45:27.703Z,14.29
2023-02-09T13:46:32.336Z,14.46
2023-02-09T13:47:34.729Z,14.91
2023-02-09T13:48:38.402Z,13.61
2023-02-09T13:49:41.249Z,14.15
2023-02-09T13:50:49.152Z,13.39
2023-02-09T13:52:15.344Z,13.73
2023-02-09T13:53:19.585Z,13.98
2023-02-09T13:54:21.982Z,13.45
2023-02-09T13:55:26.255Z,14.47
2023-02-09T13:56:30.528Z,14.73
2023-02-09T13:57:38.742Z,14.55
2023-02-09T13:58:41.157Z,14.00
2023-02-09T13:59:43.592Z,14.11
2023-02-09T14:01:01.925Z,14.17
2023-02-09T14:02:08.225Z,14.63
2023-02-09T14:03:29.309Z,16.74
2023-02-09T14:04:34.870Z,17.14
2023-02-09T14:05:42.194Z,15.67
2023-02-09T14:06:53.962Z,14.03
2023-02-09T14:07:56.880Z,14.22
2023-02-09T14:09:00.742Z,14.78
2023-02-09T14:10:16.072Z,14.64
2023-02-09T14:11:43.147Z,14.03
2023-02-09T14:12:51.875Z,13.51
2023-02-09T14:14:10.013Z,13.56
2023-02-09T14:15:14.363Z,13.68
2023-02-09T14:16:18.800Z,14.39
2023-02-09T14:17:29.000Z,14.43
2023-02-09T14:18:44.080Z,13.53
2023-02-09T14:19:47.332Z,14.41
2023-02-09T14:21:02.614Z,13.25
2023-02-09T14:22:04.657Z,14.88
2023-02-09T14:23:14.840Z,15.28
2023-02-09T14:24:28.078Z,15.57
2023-02-09T14:25:30.859Z,15.35
2023-02-09T14:26:35.811Z,15.64
2023-02-09T14:27:39.346Z,15.09
2023-02-09T14:28:46.706Z,15.13
2023-02-09T14:29:50.088Z,15.07
2023-02-09T14:30:52.701Z,14.01
2023-02-09T14:32:32.406Z,14.69
2023-02-09T14:33:29.560Z,15.13
2023-02-09T14:34:35.154Z,15.54